createdAt,value
2019-03-30T00:03:27.206Z,8.50
2019-03-30T00:06:35.688Z,8.50
2019-03-30T00:09:26.124Z,8.50
2019-03-30T00:12:16.771Z,8.50
2019-03-30T00:15:25.099Z,8.50
2019-03-30T00:18:14.071Z,8.40
2019-03-30T00:21:04.715Z,8.40
2019-03-30T00:24:13.013Z,8.30
2019-03-30T00:27:03.821Z,8.30
2019-03-30T00:29:54.869Z,8.20
2019-03-30T00:32:37.972Z,8.20
2019-03-30T00:35:19.800Z,8.20
2019-03-30T00:38:01.652Z,8.20
2019-03-30T00:40:43.470Z,8.10
2019-03-30T00:43:24.918Z,8.10
2019-03-30T00:46:06.469Z,8.10
2019-03-30T00:48:48.715Z,8.00
2019-03-30T00:51:31.035Z,7.90
2019-03-30T00:54:12.979Z,7.90
2019-03-30T00:56:55.157Z,7.80
2019-03-30T00:59:37.975Z,7.80
2019-03-30T01:02:19.759Z,7.70
2019-03-30T01:05:02.003Z,7.70
2019-03-30T01:07:44.062Z,7.70
2019-03-30T01:10:25.611Z,7.60
2019-03-30T01:13:07.919Z,7.60
2019-03-30T01:18:32.649Z,7.50
2019-03-30T01:21:14.823Z,7.40
2019-03-30T01:23:57.263Z,7.40
2019-03-30T01:26:37.099Z,7.40
2019-03-30T01:29:26.019Z,7.30
2019-03-30T01:32:10.286Z,7.30
2019-03-30T01:34:51.829Z,7.30
2019-03-30T01:37:33.423Z,7.40
2019-03-30T01:40:15.121Z,7.30
2019-03-30T01:42:56.920Z,7.30
2019-03-30T01:45:39.360Z,7.30
2019-03-30T01:48:21.462Z,7.30
2019-03-30T01:51:02.792Z,7.20
2019-03-30T01:53:44.620Z,7.20
2019-03-30T01:56:26.178Z,7.20
2019-03-30T01:59:08.123Z,7.20
2019-03-30T02:01:49.734Z,7.00
2019-03-30T02:04:31.396Z,7.00
2019-03-30T02:07:13.292Z,7.00
2019-03-30T02:09:55.420Z,6.90
2019-03-30T02:12:38.090Z,6.90
2019-03-30T02:15:19.650Z,6.90
2019-03-30T02:18:01.376Z,6.90
2019-03-30T02:20:42.912Z,6.80
2019-03-30T02:23:25.228Z,6.80
2019-03-30T02:26:07.464Z,6.80
2019-03-30T02:28:49.241Z,6.80
2019-03-30T02:31:31.473Z,6.90
2019-03-30T02:34:13.402Z,6.90
2019-03-30T02:36:55.626Z,6.90
2019-03-30T02:39:38.511Z,6.80
2019-03-30T02:42:20.469Z,6.80
2019-03-30T02:45:02.318Z,6.80
2019-03-30T02:47:43.878Z,6.80
2019-03-30T02:50:26.377Z,6.80
2019-03-30T02:53:08.158Z,6.70
2019-03-30T02:55:49.697Z,6.70
2019-03-30T02:58:32.257Z,6.70
2019-03-30T03:01:14.083Z,6.70
2019-03-30T03:03:56.451Z,6.80
2019-03-30T03:06:38.167Z,6.80
2019-03-30T03:09:19.733Z,6.90
2019-03-30T03:12:01.629Z,6.90
2019-03-30T03:14:43.638Z,6.90
2019-03-30T03:17:25.169Z,7.00
2019-03-30T03:20:06.927Z,7.00
2019-03-30T03:22:48.799Z,6.80
2019-03-30T03:25:31.142Z,6.60
2019-03-30T03:28:13.160Z,6.50
2019-03-30T03:30:55.446Z,6.30
2019-03-30T03:33:38.519Z,6.20
2019-03-30T03:36:20.435Z,6.10
2019-03-30T03:39:02.467Z,6.20
2019-03-30T03:41:44.402Z,6.20
2019-03-30T03:44:26.332Z,6.40
2019-03-30T03:47:08.580Z,6.40
2019-03-30T03:49:50.821Z,6.50
2019-03-30T03:52:33.284Z,6.50
2019-03-30T03:55:15.413Z,6.60
2019-03-30T03:57:57.255Z,6.60
2019-03-30T04:00:39.161Z,6.60
2019-03-30T04:03:21.572Z,6.60
2019-03-30T04:06:03.104Z,6.60
2019-03-30T04:08:45.473Z,6.60
2019-03-30T04:11:27.345Z,6.60
2019-03-30T04:14:09.539Z,6.60
2019-03-30T04:16:52.209Z,6.60
2019-03-30T04:19:34.564Z,6.60
2019-03-30T04:22:16.678Z,6.70
2019-03-30T04:24:58.432Z,6.60
2019-03-30T04:27:43.814Z,6.50
2019-03-30T04:30:25.360Z,6.60
2019-03-30T04:33:07.004Z,6.60
2019-03-30T04:35:49.098Z,6.50
2019-03-30T04:38:30.799Z,6.50
2019-03-30T04:41:12.705Z,6.50
2019-03-30T04:43:54.700Z,6.50
2019-03-30T04:46:36.580Z,6.40
2019-03-30T04:49:18.046Z,6.50
2019-03-30T04:51:59.758Z,6.90
2019-03-30T04:54:41.673Z,6.40
2019-03-30T04:57:23.031Z,6.40
2019-03-30T05:00:04.983Z,6.40
2019-03-30T05:02:47.491Z,6.40
2019-03-30T05:05:28.887Z,6.40
2019-03-30T05:08:10.556Z,6.40
2019-03-30T05:10:52.250Z,6.40
2019-03-30T05:13:33.620Z,6.40
2019-03-30T05:16:15.131Z,6.40
2019-03-30T05:18:56.956Z,6.40
2019-03-30T05:21:38.426Z,6.30
2019-03-30T05:24:19.935Z,6.40
2019-03-30T05:27:02.357Z,6.40
2019-03-30T05:29:44.156Z,6.50
2019-03-30T05:32:25.936Z,6.50
2019-03-30T05:35:08.211Z,6.50
2019-03-30T05:37:50.646Z,6.60
2019-03-30T05:40:32.923Z,6.60
2019-03-30T05:43:14.730Z,6.70
2019-03-30T05:45:56.428Z,6.80
2019-03-30T05:48:38.222Z,6.80
2019-03-30T05:51:20.359Z,6.80
2019-03-30T05:54:02.404Z,6.90
2019-03-30T05:56:43.997Z,7.00
2019-03-30T05:59:26.380Z,7.00
2019-03-30T06:02:10.115Z,7.10
2019-03-30T06:04:52.623Z,7.10
2019-03-30T06:07:34.998Z,7.20
2019-03-30T06:10:17.286Z,7.20
2019-03-30T06:12:59.256Z,7.30
2019-03-30T06:19:14.416Z,7.50
2019-03-30T06:21:56.456Z,7.70
2019-03-30T06:24:38.867Z,7.70
2019-03-30T06:27:20.848Z,7.80
2019-03-30T06:30:02.501Z,8.00
2019-03-30T06:32:44.371Z,8.10
2019-03-30T06:35:25.831Z,8.10
2019-03-30T06:38:07.759Z,8.20
2019-03-30T06:40:49.878Z,8.30
2019-03-30T06:43:31.838Z,8.50
2019-03-30T06:46:13.403Z,8.60
2019-03-30T06:48:55.974Z,8.80
2019-03-30T06:51:38.780Z,8.90
2019-03-30T06:54:20.547Z,9.00
2019-03-30T06:57:00.386Z,9.20
2019-03-30T06:59:49.488Z,9.30
2019-03-30T07:02:57.827Z,9.40
2019-03-30T07:05:48.579Z,9.50
2019-03-30T07:08:39.025Z,9.60
2019-03-30T07:11:29.443Z,9.80
2019-03-30T07:14:19.888Z,9.90
2019-03-30T07:17:31.235Z,10.00
2019-03-30T07:20:39.788Z,10.20
2019-03-30T07:23:28.625Z,10.30
2019-03-30T07:26:36.923Z,10.30
2019-03-30T07:29:27.453Z,10.50
2019-03-30T07:32:17.892Z,10.70
2019-03-30T07:35:19.430Z,10.70
2019-03-30T07:38:01.931Z,10.80
2019-03-30T07:40:44.107Z,10.90
2019-03-30T07:43:24.002Z,11.00
2019-03-30T07:46:12.809Z,11.00
2019-03-30T07:49:03.609Z,11.10
2019-03-30T07:52:11.894Z,11.10
2019-03-30T07:55:02.553Z,11.20
2019-03-30T07:57:53.042Z,11.40
2019-03-30T08:00:43.676Z,11.60
2019-03-30T08:03:52.001Z,11.60
2019-03-30T08:06:42.635Z,11.80
2019-03-30T08:09:33.083Z,12.00
2019-03-30T08:12:23.527Z,12.50
2019-03-30T08:15:14.064Z,12.90
2019-03-30T08:18:05.059Z,13.30
2019-03-30T08:24:27.728Z,13.00
2019-03-30T08:27:18.191Z,13.20
2019-03-30T08:30:26.564Z,13.10
2019-03-30T08:33:17.017Z,13.30
2019-03-30T08:36:00.673Z,13.40
2019-03-30T08:38:42.730Z,13.70
2019-03-30T08:41:24.750Z,14.00
2019-03-30T08:44:06.999Z,14.20
2019-03-30T08:46:49.108Z,14.30
2019-03-30T08:49:34.149Z,14.20
2019-03-30T08:52:16.417Z,13.90
2019-03-30T08:54:58.955Z,13.70
2019-03-30T08:57:40.498Z,13.70
2019-03-30T09:00:22.828Z,13.80
2019-03-30T09:03:04.821Z,14.00
2019-03-30T09:05:46.752Z,13.90
2019-03-30T09:08:28.825Z,13.90
2019-03-30T09:11:11.092Z,13.80
2019-03-30T09:13:52.992Z,13.80
2019-03-30T09:16:34.898Z,13.90
2019-03-30T09:19:17.200Z,13.90
2019-03-30T09:21:58.795Z,14.00
2019-03-30T09:24:40.599Z,14.30
2019-03-30T09:27:22.827Z,14.50
2019-03-30T09:30:04.949Z,14.70
2019-03-30T09:32:46.484Z,14.70
2019-03-30T09:35:28.850Z,14.80
2019-03-30T09:38:10.276Z,14.80
2019-03-30T09:40:51.749Z,15.00
2019-03-30T09:43:33.778Z,15.20
2019-03-30T09:46:15.492Z,15.30
2019-03-30T09:48:57.707Z,15.40
2019-03-30T09:51:39.300Z,15.60
2019-03-30T09:54:23.948Z,15.60
2019-03-30T09:57:04.721Z,15.40
2019-03-30T09:59:46.957Z,15.40
2019-03-30T10:02:28.693Z,15.40
2019-03-30T10:05:11.088Z,15.40
2019-03-30T10:07:52.974Z,15.30
2019-03-30T10:10:34.792Z,15.10
2019-03-30T10:13:17.240Z,15.20
2019-03-30T10:15:56.991Z,15.20
2019-03-30T10:18:45.974Z,15.30
2019-03-30T10:21:36.705Z,15.20
2019-03-30T10:24:37.521Z,15.20
2019-03-30T10:27:35.645Z,15.40
2019-03-30T10:30:08.405Z,15.40
2019-03-30T10:32:38.246Z,15.50
2019-03-30T10:35:08.891Z,15.40
2019-03-30T10:37:58.103Z,15.40
2019-03-30T10:40:29.431Z,15.50
2019-03-30T10:42:59.194Z,15.60
2019-03-30T10:45:31.180Z,15.70
2019-03-30T10:48:00.718Z,15.80
2019-03-30T10:50:30.369Z,16.00
2019-03-30T10:53:00.239Z,15.90
2019-03-30T10:55:29.779Z,16.10
2019-03-30T10:58:02.119Z,16.20
2019-03-30T11:00:36.686Z,16.20
2019-03-30T11:03:06.298Z,16.10
2019-03-30T11:05:35.906Z,16.10
2019-03-30T11:08:05.408Z,16.10
2019-03-30T11:10:35.331Z,16.20
2019-03-30T11:13:04.866Z,16.10
2019-03-30T11:15:34.567Z,16.10
2019-03-30T11:18:06.644Z,16.00
2019-03-30T11:20:35.420Z,16.00
2019-03-30T11:23:05.308Z,16.10
2019-03-30T11:25:34.856Z,16.30
2019-03-30T11:28:04.428Z,16.50
2019-03-30T11:30:33.823Z,16.60
2019-03-30T11:33:03.376Z,16.80
2019-03-30T11:35:32.836Z,16.90
2019-03-30T11:38:02.316Z,16.90
2019-03-30T11:40:31.713Z,17.20
2019-03-30T11:43:01.526Z,17.40
2019-03-30T11:45:32.438Z,17.60
2019-03-30T11:48:02.388Z,17.70
2019-03-30T11:50:31.895Z,17.90
2019-03-30T11:53:01.381Z,18.20
2019-03-30T11:55:30.920Z,18.20
2019-03-30T11:58:00.657Z,18.40
2019-03-30T12:00:31.304Z,18.10
2019-03-30T12:03:02.912Z,18.40
2019-03-30T12:05:32.453Z,18.60
2019-03-30T12:08:02.300Z,18.80
2019-03-30T12:10:31.845Z,19.00
2019-03-30T12:13:01.363Z,19.00
2019-03-30T12:15:30.848Z,19.00
2019-03-30T12:18:00.434Z,18.90
2019-03-30T12:20:30.536Z,19.10
2019-03-30T12:23:00.343Z,19.30
2019-03-30T12:25:36.019Z,19.60
2019-03-30T12:28:00.961Z,19.80
2019-03-30T12:30:30.490Z,19.80
2019-03-30T12:33:00.391Z,19.80
2019-03-30T12:35:29.915Z,20.00
2019-03-30T12:37:59.425Z,20.10
2019-03-30T12:40:29.271Z,20.60
2019-03-30T12:42:59.073Z,20.80
2019-03-30T12:45:28.687Z,20.80
2019-03-30T12:47:58.391Z,21.00
2019-03-30T12:50:28.195Z,21.30
2019-03-30T12:52:57.649Z,21.60
2019-03-30T12:55:27.480Z,21.70
2019-03-30T12:57:57.852Z,21.80
2019-03-30T13:00:27.669Z,21.70
2019-03-30T13:02:57.397Z,21.50
2019-03-30T13:05:26.914Z,21.80
2019-03-30T13:07:56.768Z,22.30
2019-03-30T13:10:26.769Z,22.60
2019-03-30T13:12:56.435Z,22.70
2019-03-30T13:15:26.679Z,23.00
2019-03-30T13:17:56.520Z,23.00
2019-03-30T13:20:32.719Z,22.70
2019-03-30T13:22:59.562Z,22.90
2019-03-30T13:25:29.691Z,23.30
2019-03-30T13:27:59.777Z,23.50
2019-03-30T13:30:29.583Z,23.60
2019-03-30T13:32:59.649Z,23.90
2019-03-30T13:35:29.500Z,24.30
2019-03-30T13:37:58.991Z,24.60
2019-03-30T13:40:28.833Z,24.30
2019-03-30T13:42:58.443Z,24.10
2019-03-30T13:45:28.148Z,24.20
2019-03-30T13:47:57.967Z,24.30
2019-03-30T13:50:30.819Z,24.50
2019-03-30T13:52:59.044Z,24.70
2019-03-30T13:55:28.876Z,24.80
2019-03-30T13:57:58.746Z,24.90
2019-03-30T14:00:28.833Z,25.10
2019-03-30T14:02:58.753Z,24.70
2019-03-30T14:05:28.746Z,25.30
2019-03-30T14:07:58.764Z,25.70
2019-03-30T14:10:28.832Z,26.20
2019-03-30T14:12:58.573Z,26.50
2019-03-30T14:15:28.154Z,26.50
2019-03-30T14:17:57.796Z,26.40
2019-03-30T14:20:27.570Z,26.40
2019-03-30T14:22:57.114Z,26.60
2019-03-30T14:25:27.098Z,26.70
2019-03-30T14:27:56.851Z,26.90
2019-03-30T14:30:27.145Z,27.30
2019-03-30T14:32:56.951Z,27.40
2019-03-30T14:35:29.027Z,27.90
2019-03-30T14:37:58.969Z,28.40
2019-03-30T14:40:28.787Z,30.90
2019-03-30T14:42:58.559Z,33.00
2019-03-30T14:45:28.680Z,34.80
2019-03-30T14:47:58.838Z,35.90
2019-03-30T14:50:28.794Z,37.10
2019-03-30T14:52:58.629Z,37.80
2019-03-30T14:55:28.744Z,37.90
2019-03-30T14:57:58.576Z,38.30
2019-03-30T15:00:29.010Z,38.90
2019-03-30T15:02:58.976Z,39.60
2019-03-30T15:05:28.871Z,39.90
2019-03-30T15:07:58.914Z,39.80
2019-03-30T15:10:28.733Z,39.90
2019-03-30T15:12:58.506Z,39.50
2019-03-30T15:15:28.368Z,39.30
2019-03-30T15:17:58.276Z,39.50
2019-03-30T15:20:28.032Z,39.80
2019-03-30T15:23:16.955Z,39.70
2019-03-30T15:26:06.243Z,40.10
2019-03-30T15:29:14.827Z,39.60
2019-03-30T15:32:05.649Z,39.30
2019-03-30T15:35:14.246Z,39.30
2019-03-30T15:37:57.698Z,39.40
2019-03-30T15:40:40.079Z,38.90
2019-03-30T15:43:21.796Z,39.10
2019-03-30T15:46:04.703Z,39.30
2019-03-30T15:48:47.470Z,39.10
2019-03-30T15:51:29.462Z,38.40
2019-03-30T15:54:11.550Z,37.60
2019-03-30T15:56:53.175Z,36.40
2019-03-30T15:59:35.899Z,35.80
2019-03-30T16:02:18.342Z,35.90
2019-03-30T16:05:00.680Z,35.70
2019-03-30T16:07:43.240Z,35.30
2019-03-30T16:10:25.371Z,35.10
2019-03-30T16:13:08.113Z,34.20
2019-03-30T16:18:33.601Z,32.10
2019-03-30T16:21:15.453Z,31.40
2019-03-30T16:23:57.797Z,31.60
2019-03-30T16:26:42.277Z,31.00
2019-03-30T16:29:23.520Z,30.20
2019-03-30T16:32:05.296Z,29.60
2019-03-30T16:34:47.532Z,29.10
2019-03-30T16:40:16.692Z,27.50
2019-03-30T16:42:58.921Z,27.10
2019-03-30T16:45:40.360Z,27.00
2019-03-30T16:48:22.690Z,26.70
2019-03-30T16:51:04.622Z,26.00
2019-03-30T16:53:47.429Z,25.80
2019-03-30T16:56:17.194Z,24.90
2019-03-30T16:59:25.550Z,23.80
2019-03-30T17:02:14.686Z,22.60
2019-03-30T17:05:24.539Z,21.60
2019-03-30T17:08:14.894Z,20.80
2019-03-30T17:11:04.097Z,20.20
2019-03-30T17:14:12.449Z,19.60
2019-03-30T17:17:03.024Z,19.10
2019-03-30T17:19:52.450Z,18.80
2019-03-30T17:22:41.549Z,18.60
2019-03-30T17:25:30.501Z,18.30
2019-03-30T17:28:38.983Z,18.00
2019-03-30T17:31:29.495Z,17.70
2019-03-30T17:34:37.830Z,17.50
2019-03-30T17:37:39.756Z,17.30
2019-03-30T17:40:21.627Z,17.10
2019-03-30T17:43:03.912Z,16.90
2019-03-30T17:48:28.923Z,16.60
2019-03-30T17:51:10.895Z,16.50
2019-03-30T17:53:53.005Z,16.40
2019-03-30T17:56:35.450Z,16.20
2019-03-30T17:59:05.084Z,16.10
2019-03-30T18:01:55.856Z,16.00
2019-03-30T18:04:44.829Z,15.90
2019-03-30T18:07:33.812Z,15.80
2019-03-30T18:10:24.428Z,15.70
2019-03-30T18:13:14.940Z,15.60
2019-03-30T18:16:03.886Z,15.50
2019-03-30T18:18:54.555Z,15.40
2019-03-30T18:21:43.820Z,15.30
2019-03-30T18:24:54.148Z,15.20
2019-03-30T18:27:44.835Z,15.20
2019-03-30T18:30:56.562Z,15.10
2019-03-30T18:33:46.797Z,15.00
2019-03-30T18:36:28.951Z,15.00
2019-03-30T18:39:10.854Z,14.90
2019-03-30T18:41:52.980Z,14.90
2019-03-30T18:44:34.729Z,14.80
2019-03-30T18:47:16.826Z,14.70
2019-03-30T18:49:58.537Z,14.70
2019-03-30T18:52:40.099Z,14.60
2019-03-30T18:55:21.729Z,14.60
2019-03-30T18:58:04.153Z,14.50
2019-03-30T19:00:45.950Z,14.50
2019-03-30T19:03:27.611Z,14.40
2019-03-30T19:06:09.819Z,14.40
2019-03-30T19:08:51.737Z,14.40
2019-03-30T19:11:33.804Z,14.30
2019-03-30T19:14:15.905Z,14.20
2019-03-30T19:16:57.572Z,14.20
2019-03-30T19:19:39.692Z,14.10
2019-03-30T19:22:21.246Z,14.10
2019-03-30T19:25:03.550Z,14.10
2019-03-30T19:27:45.881Z,14.00
2019-03-30T19:30:29.225Z,14.00
2019-03-30T19:33:11.490Z,13.90
2019-03-30T19:35:53.505Z,13.90
2019-03-30T19:38:35.887Z,13.80
2019-03-30T19:41:18.187Z,13.80
2019-03-30T19:44:00.835Z,13.80
2019-03-30T19:46:42.449Z,13.80
2019-03-30T19:49:24.695Z,13.70
2019-03-30T19:52:06.546Z,13.70
2019-03-30T19:54:49.088Z,13.70
2019-03-30T19:57:30.873Z,13.60
2019-03-30T20:00:13.087Z,13.60
2019-03-30T20:02:55.003Z,13.50
2019-03-30T20:05:36.780Z,13.50
2019-03-30T20:08:19.066Z,13.40
2019-03-30T20:11:01.064Z,13.40
2019-03-30T20:13:43.317Z,13.40
2019-03-30T20:16:24.815Z,13.30
2019-03-30T20:19:12.511Z,13.30
2019-03-30T20:21:49.773Z,13.20
2019-03-30T20:24:31.944Z,13.20
2019-03-30T20:27:13.775Z,13.20
2019-03-30T20:32:43.150Z,13.10
2019-03-30T20:35:24.629Z,13.10
2019-03-30T20:38:06.539Z,13.00
2019-03-30T20:40:49.466Z,12.90
2019-03-30T20:43:31.500Z,12.90
2019-03-30T20:46:13.634Z,12.80
2019-03-30T20:48:56.433Z,12.80
2019-03-30T20:51:39.600Z,12.70
2019-03-30T20:54:22.120Z,12.70
2019-03-30T20:57:07.612Z,12.60
2019-03-30T20:59:49.672Z,12.60
2019-03-30T21:02:31.663Z,12.50
2019-03-30T21:05:13.215Z,12.50
2019-03-30T21:07:55.579Z,12.50
2019-03-30T21:10:37.283Z,12.40
2019-03-30T21:13:06.933Z,12.30
2019-03-30T21:16:15.359Z,12.30
2019-03-30T21:19:05.879Z,12.30
2019-03-30T21:22:14.222Z,12.20
2019-03-30T21:25:05.087Z,12.10
2019-03-30T21:27:53.984Z,12.10
2019-03-30T21:30:44.607Z,12.10
2019-03-30T21:33:53.061Z,12.00
2019-03-30T21:36:54.788Z,12.00
2019-03-30T21:39:38.365Z,12.00
2019-03-30T21:42:20.311Z,11.90
2019-03-30T21:45:02.050Z,11.90
2019-03-30T21:47:44.041Z,11.80
2019-03-30T21:50:26.019Z,11.80
2019-03-30T21:53:09.813Z,11.80
2019-03-30T21:55:52.061Z,11.70
2019-03-30T21:58:35.446Z,11.70
2019-03-30T22:01:18.709Z,11.70
2019-03-30T22:04:00.406Z,11.60
2019-03-30T22:06:42.606Z,11.60
2019-03-30T22:09:25.069Z,11.60
2019-03-30T22:12:07.292Z,11.60
2019-03-30T22:14:49.546Z,11.50
2019-03-30T22:17:33.050Z,11.50
2019-03-30T22:20:15.117Z,11.50
2019-03-30T22:22:57.692Z,11.50
2019-03-30T22:25:40.252Z,11.50
2019-03-30T22:28:22.069Z,11.50
2019-03-30T22:31:03.913Z,11.40
2019-03-30T22:33:46.377Z,11.40
2019-03-30T22:36:28.006Z,11.40
2019-03-30T22:39:12.078Z,11.30
2019-03-30T22:41:54.287Z,11.30
2019-03-30T22:44:36.249Z,11.20
2019-03-30T22:47:18.449Z,11.20
2019-03-30T22:50:00.514Z,11.20
2019-03-30T22:52:42.741Z,11.10
2019-03-30T22:55:24.868Z,11.10
2019-03-30T22:58:06.586Z,11.10
2019-03-30T23:03:57.010Z,11.00
2019-03-30T23:06:40.007Z,11.00
2019-03-30T23:09:22.119Z,11.00
2019-03-30T23:12:04.186Z,10.90
2019-03-30T23:14:45.700Z,10.90
2019-03-30T23:17:28.125Z,10.90
2019-03-30T23:20:10.417Z,10.90
2019-03-30T23:25:34.984Z,10.90
2019-03-30T23:28:17.185Z,10.90
2019-03-30T23:30:59.066Z,10.90
2019-03-30T23:33:40.548Z,10.90
2019-03-30T23:36:42.397Z,10.90
2019-03-30T23:39:43.964Z,10.80
2019-03-30T23:42:45.055Z,10.40
2019-03-30T23:45:46.777Z,10.70
2019-03-30T23:48:35.701Z,10.70
2019-03-30T23:51:44.026Z,10.70
2019-03-30T23:54:52.660Z,10.60
2019-03-30T23:58:00.975Z,10.60
